sensor_id;sensor_type;location;lat;lon;timestamp;temperature;humidity
44695;DHT22;32845;59.422;17.930;2022-09-01T00:00:31;10.70;99.90
44695;DHT22;32845;59.422;17.930;2022-09-01T00:05:02;10.60;99.90
44695;DHT22;32845;59.422;17.930;2022-09-01T00:09:34;10.60;99.90
44695;DHT22;32845;59.422;17.930;2022-09-01T00:14:07;10.60;99.90
44695;DHT22;32845;59.422;17.930;2022-09-01T00:18:40;10.60;99.90
44695;DHT22;32845;59.422;17.930;2022-09-01T00:23:11;10.70;99.90
44695;DHT22;32845;59.422;17.930;2022-09-01T00:27:42;10.70;99.90
44695;DHT22;32845;59.422;17.930;2022-09-01T00:32:13;10.70;99.90
44695;DHT22;32845;59.422;17.930;2022-09-01T00:36:44;10.70;99.90
44695;DHT22;32845;59.422;17.930;2022-09-01T00:41:17;10.60;99.90
44695;DHT22;32845;59.422;17.930;2022-09-01T00:45:49;10.60;99.90
44695;DHT22;32845;59.422;17.930;2022-09-01T00:50:21;10.60;99.90
44695;DHT22;32845;59.422;17.930;2022-09-01T00:54:58;10.60;99.90
44695;DHT22;32845;59.422;17.930;2022-09-01T00:59:29;10.60;99.90
44695;DHT22;32845;59.422;17.930;2022-09-01T01:04:02;10.60;99.90
44695;DHT22;32845;59.422;17.930;2022-09-01T01:08:35;10.60;99.90
44695;DHT22;32845;59.422;17.930;2022-09-01T01:13:11;10.50;99.90
44695;DHT22;32845;59.422;17.930;2022-09-01T01:17:43;10.50;99.90
44695;DHT22;32845;59.422;17.930;2022-09-01T01:23:32;10.40;99.90
44695;DHT22;32845;59.422;17.930;2022-09-01T01:27:33;10.30;99.90
44695;DHT22;32845;59.422;17.930;2022-09-01T01:32:05;10.10;99.90
44695;DHT22;32845;59.422;17.930;2022-09-01T01:36:47;10.00;99.90
44695;DHT22;32845;59.422;17.930;2022-09-01T01:41:19;9.90;99.90
44695;DHT22;32845;59.422;17.930;2022-09-01T01:45:54;9.90;99.90
44695;DHT22;32845;59.422;17.930;2022-09-01T01:50:31;9.90;99.90
44695;DHT22;32845;59.422;17.930;2022-09-01T01:55:05;9.80;99.90
44695;DHT22;32845;59.422;17.930;2022-09-01T01:59:42;9.80;99.90
44695;DHT22;32845;59.422;17.930;2022-09-01T02:04:12;9.80;99.90
44695;DHT22;32845;59.422;17.930;2022-09-01T02:08:44;9.80;99.90
44695;DHT22;32845;59.422;17.930;2022-09-01T02:13:17;9.70;99.90
44695;DHT22;32845;59.422;17.930;2022-09-01T02:17:48;9.70;99.90
44695;DHT22;32845;59.422;17.930;2022-09-01T02:22:19;9.80;99.90
44695;DHT22;32845;59.422;17.930;2022-09-01T02:26:51;9.90;99.90
44695;DHT22;32845;59.422;17.930;2022-09-01T02:31:22;10.00;99.90
44695;DHT22;32845;59.422;17.930;2022-09-01T02:35:56;10.10;99.90
44695;DHT22;32845;59.422;17.930;2022-09-01T02:40:27;10.20;99.90
44695;DHT22;32845;59.422;17.930;2022-09-01T02:45:00;10.20;99.90
44695;DHT22;32845;59.422;17.930;2022-09-01T02:49:32;10.30;99.90
44695;DHT22;32845;59.422;17.930;2022-09-01T02:54:03;10.30;99.90
44695;DHT22;32845;59.422;17.930;2022-09-01T02:58:35;10.30;99.90
44695;DHT22;32845;59.422;17.930;2022-09-01T03:03:15;10.40;99.90
44695;DHT22;32845;59.422;17.930;2022-09-01T03:07:53;10.40;99.90
44695;DHT22;32845;59.422;17.930;2022-09-01T03:12:25;10.30;99.90
44695;DHT22;32845;59.422;17.930;2022-09-01T03:16:57;10.20;99.90
44695;DHT22;32845;59.422;17.930;2022-09-01T03:21:30;10.20;99.90
44695;DHT22;32845;59.422;17.930;2022-09-01T03:26:01;10.20;99.90
44695;DHT22;32845;59.422;17.930;2022-09-01T03:30:35;10.20;99.90
44695;DHT22;32845;59.422;17.930;2022-09-01T03:35:10;10.20;99.90
44695;DHT22;32845;59.422;17.930;2022-09-01T03:39:42;10.10;99.90
44695;DHT22;32845;59.422;17.930;2022-09-01T03:44:13;10.00;99.90
44695;DHT22;32845;59.422;17.930;2022-09-01T03:48:47;9.90;99.90
44695;DHT22;32845;59.422;17.930;2022-09-01T03:53:20;9.90;99.90
44695;DHT22;32845;59.422;17.930;2022-09-01T03:57:53;9.80;99.90
44695;DHT22;32845;59.422;17.930;2022-09-01T04:02:25;9.70;99.90
44695;DHT22;32845;59.422;17.930;2022-09-01T04:06:59;9.60;99.90
44695;DHT22;32845;59.422;17.930;2022-09-01T04:11:30;9.50;99.90
44695;DHT22;32845;59.422;17.930;2022-09-01T04:16:02;9.50;99.90
44695;DHT22;32845;59.422;17.930;2022-09-01T04:20:40;9.60;99.90
44695;DHT22;32845;59.422;17.930;2022-09-01T04:25:20;9.60;99.90
44695;DHT22;32845;59.422;17.930;2022-09-01T04:29:52;9.70;99.90
44695;DHT22;32845;59.422;17.930;2022-09-01T04:34:23;9.80;99.90
44695;DHT22;32845;59.422;17.930;2022-09-01T04:38:56;9.80;99.90
44695;DHT22;32845;59.422;17.930;2022-09-01T04:43:27;9.90;99.90
44695;DHT22;32845;59.422;17.930;2022-09-01T04:47:58;10.00;99.90
44695;DHT22;32845;59.422;17.930;2022-09-01T04:52:30;10.00;99.90
44695;DHT22;32845;59.422;17.930;2022-09-01T04:57:01;10.10;99.90
44695;DHT22;32845;59.422;17.930;2022-09-01T05:01:33;10.10;99.90
44695;DHT22;32845;59.422;17.930;2022-09-01T05:06:18;10.20;99.90
44695;DHT22;32845;59.422;17.930;2022-09-01T05:10:50;10.20;99.90
44695;DHT22;32845;59.422;17.930;2022-09-01T05:15:21;10.30;99.90
44695;DHT22;32845;59.422;17.930;2022-09-01T05:19:52;10.30;99.90
44695;DHT22;32845;59.422;17.930;2022-09-01T05:24:24;10.40;99.90
44695;DHT22;32845;59.422;17.930;2022-09-01T05:29:04;10.40;99.90
44695;DHT22;32845;59.422;17.930;2022-09-01T05:33:39;10.50;99.90
44695;DHT22;32845;59.422;17.930;2022-09-01T05:38:15;10.50;99.90
44695;DHT22;32845;59.422;17.930;2022-09-01T05:42:46;10.60;99.90
44695;DHT22;32845;59.422;17.930;2022-09-01T05:47:17;10.70;99.90
44695;DHT22;32845;59.422;17.930;2022-09-01T05:51:49;10.80;99.90
44695;DHT22;32845;59.422;17.930;2022-09-01T05:56:22;10.90;99.90
44695;DHT22;32845;59.422;17.930;2022-09-01T06:00:54;10.90;99.90
44695;DHT22;32845;59.422;17.930;2022-09-01T06:05:27;11.00;99.90
44695;DHT22;32845;59.422;17.930;2022-09-01T06:09:59;11.10;99.90
44695;DHT22;32845;59.422;17.930;2022-09-01T06:14:30;11.20;99.90
44695;DHT22;32845;59.422;17.930;2022-09-01T06:19:01;11.30;99.90
44695;DHT22;32845;59.422;17.930;2022-09-01T06:23:32;11.40;99.90
44695;DHT22;32845;59.422;17.930;2022-09-01T06:28:03;11.50;99.90
44695;DHT22;32845;59.422;17.930;2022-09-01T06:32:33;11.60;99.90
44695;DHT22;32845;59.422;17.930;2022-09-01T06:37:08;11.60;99.90
44695;DHT22;32845;59.422;17.930;2022-09-01T06:41:39;11.70;99.90
44695;DHT22;32845;59.422;17.930;2022-09-01T06:46:10;11.80;99.90
44695;DHT22;32845;59.422;17.930;2022-09-01T06:50:41;11.80;99.90
44695;DHT22;32845;59.422;17.930;2022-09-01T06:55:13;11.90;99.90
44695;DHT22;32845;59.422;17.930;2022-09-01T06:59:44;12.00;99.90
44695;DHT22;32845;59.422;17.930;2022-09-01T07:04:15;12.10;99.90
44695;DHT22;32845;59.422;17.930;2022-09-01T07:08:49;12.20;99.90
44695;DHT22;32845;59.422;17.930;2022-09-01T07:13:24;12.30;99.90
44695;DHT22;32845;59.422;17.930;2022-09-01T07:17:56;12.40;99.90
44695;DHT22;32845;59.422;17.930;2022-09-01T07:22:27;12.50;99.90
44695;DHT22;32845;59.422;17.930;2022-09-01T07:26:58;12.60;99.90
44695;DHT22;32845;59.422;17.930;2022-09-01T07:31:31;12.80;99.90
44695;DHT22;32845;59.422;17.930;2022-09-01T07:36:04;12.90;99.90
44695;DHT22;32845;59.422;17.930;2022-09-01T07:40:37;13.00;99.90
44695;DHT22;32845;59.422;17.930;2022-09-01T07:45:10;13.10;99.90
44695;DHT22;32845;59.422;17.930;2022-09-01T07:49:41;13.20;99.90
44695;DHT22;32845;59.422;17.930;2022-09-01T07:54:12;13.30;99.90
44695;DHT22;32845;59.422;17.930;2022-09-01T07:58:44;13.40;99.90
44695;DHT22;32845;59.422;17.930;2022-09-01T08:03:16;13.40;99.90
44695;DHT22;32845;59.422;17.930;2022-09-01T08:07:48;13.60;99.90
44695;DHT22;32845;59.422;17.930;2022-09-01T08:12:19;13.60;99.90
44695;DHT22;32845;59.422;17.930;2022-09-01T08:16:49;13.60;99.90
44695;DHT22;32845;59.422;17.930;2022-09-01T08:21:20;13.60;99.90
44695;DHT22;32845;59.422;17.930;2022-09-01T08:25:52;13.60;99.90
44695;DHT22;32845;59.422;17.930;2022-09-01T08:30:23;13.50;99.90
44695;DHT22;32845;59.422;17.930;2022-09-01T08:34:54;13.50;99.90
44695;DHT22;32845;59.422;17.930;2022-09-01T08:39:26;13.40;99.90
44695;DHT22;32845;59.422;17.930;2022-09-01T08:48:59;13.20;99.90
44695;DHT22;32845;59.422;17.930;2022-09-01T08:53:35;13.10;99.90
44695;DHT22;32845;59.422;17.930;2022-09-01T08:58:12;13.00;99.90
44695;DHT22;32845;59.422;17.930;2022-09-01T09:02:50;12.90;99.90
44695;DHT22;32845;59.422;17.930;2022-09-01T09:07:53;13.00;99.90
44695;DHT22;32845;59.422;17.930;2022-09-01T09:17:12;13.00;99.90
44695;DHT22;32845;59.422;17.930;2022-09-01T09:21:46;13.10;99.90
44695;DHT22;32845;59.422;17.930;2022-09-01T09:26:17;13.20;99.90
44695;DHT22;32845;59.422;17.930;2022-09-01T09:30:49;13.30;99.90
44695;DHT22;32845;59.422;17.930;2022-09-01T09:35:39;13.60;99.90
44695;DHT22;32845;59.422;17.930;2022-09-01T09:40:18;13.80;99.90
44695;DHT22;32845;59.422;17.930;2022-09-01T09:44:49;14.00;99.90
44695;DHT22;32845;59.422;17.930;2022-09-01T09:54:31;14.40;99.90
44695;DHT22;32845;59.422;17.930;2022-09-01T09:59:00;14.50;99.90
44695;DHT22;32845;59.422;17.930;2022-09-01T10:03:49;14.70;99.90
44695;DHT22;32845;59.422;17.930;2022-09-01T10:12:58;15.00;99.90
44695;DHT22;32845;59.422;17.930;2022-09-01T10:17:38;15.30;99.90
44695;DHT22;32845;59.422;17.930;2022-09-01T10:22:11;15.30;99.90
44695;DHT22;32845;59.422;17.930;2022-09-01T10:26:43;15.10;99.90
44695;DHT22;32845;59.422;17.930;2022-09-01T10:31:18;15.00;99.90
44695;DHT22;32845;59.422;17.930;2022-09-01T10:35:52;14.90;99.90
44695;DHT22;32845;59.422;17.930;2022-09-01T10:45:02;15.20;99.90
44695;DHT22;32845;59.422;17.930;2022-09-01T10:54:04;15.30;99.90
44695;DHT22;32845;59.422;17.930;2022-09-01T10:59:07;15.70;99.90
44695;DHT22;32845;59.422;17.930;2022-09-01T11:03:52;15.90;99.90
44695;DHT22;32845;59.422;17.930;2022-09-01T11:17:37;16.60;99.90
44695;DHT22;32845;59.422;17.930;2022-09-01T11:22:24;16.70;99.90
44695;DHT22;32845;59.422;17.930;2022-09-01T11:26:55;16.70;99.90
44695;DHT22;32845;59.422;17.930;2022-09-01T11:31:39;16.40;99.90
44695;DHT22;32845;59.422;17.930;2022-09-01T11:41:00;17.40;99.90
44695;DHT22;32845;59.422;17.930;2022-09-01T11:45:32;17.80;99.90
44695;DHT22;32845;59.422;17.930;2022-09-01T11:54:47;18.00;99.90
44695;DHT22;32845;59.422;17.930;2022-09-01T11:59:32;17.70;99.90
44695;DHT22;32845;59.422;17.930;2022-09-01T12:04:24;17.40;99.90
44695;DHT22;32845;59.422;17.930;2022-09-01T12:09:01;17.00;99.90
44695;DHT22;32845;59.422;17.930;2022-09-01T12:13:34;17.00;99.90
44695;DHT22;32845;59.422;17.930;2022-09-01T12:18:21;17.40;99.90
44695;DHT22;32845;59.422;17.930;2022-09-01T12:22:52;18.00;99.90
44695;DHT22;32845;59.422;17.930;2022-09-01T12:27:23;18.40;99.90
44695;DHT22;32845;59.422;17.930;2022-09-01T12:31:55;18.70;99.90
44695;DHT22;32845;59.422;17.930;2022-09-01T12:36:35;18.80;99.90
44695;DHT22;32845;59.422;17.930;2022-09-01T12:41:23;18.70;99.90
44695;DHT22;32845;59.422;17.930;2022-09-01T12:45:54;18.70;99.90
44695;DHT22;32845;59.422;17.930;2022-09-01T12:59:31;18.50;99.90
44695;DHT22;32845;59.422;17.930;2022-09-01T13:08:50;17.90;99.10
44695;DHT22;32845;59.422;17.930;2022-09-01T13:13:22;17.70;99.90
44695;DHT22;32845;59.422;17.930;2022-09-01T13:17:56;17.60;99.90
44695;DHT22;32845;59.422;17.930;2022-09-01T13:22:27;17.40;99.90
44695;DHT22;32845;59.422;17.930;2022-09-01T13:26:58;17.10;99.90
44695;DHT22;32845;59.422;17.930;2022-09-01T13:31:28;16.70;99.90
44695;DHT22;32845;59.422;17.930;2022-09-01T13:36:02;16.20;99.90
44695;DHT22;32845;59.422;17.930;2022-09-01T13:40:33;15.70;99.90
44695;DHT22;32845;59.422;17.930;2022-09-01T13:45:04;15.40;99.90
44695;DHT22;32845;59.422;17.930;2022-09-01T13:49:35;15.30;99.90
44695;DHT22;32845;59.422;17.930;2022-09-01T13:54:06;15.30;99.90
44695;DHT22;32845;59.422;17.930;2022-09-01T13:58:37;15.30;99.90
44695;DHT22;32845;59.422;17.930;2022-09-01T14:03:11;15.20;99.90
44695;DHT22;32845;59.422;17.930;2022-09-01T14:07:42;15.10;99.90
44695;DHT22;32845;59.422;17.930;2022-09-01T14:12:13;15.10;99.90
44695;DHT22;32845;59.422;17.930;2022-09-01T14:16:44;15.10;99.90
44695;DHT22;32845;59.422;17.930;2022-09-01T14:21:15;15.10;99.90
44695;DHT22;32845;59.422;17.930;2022-09-01T14:25:50;15.10;99.90
44695;DHT22;32845;59.422;17.930;2022-09-01T14:30:23;15.00;99.90
44695;DHT22;32845;59.422;17.930;2022-09-01T14:34:55;14.90;99.90
44695;DHT22;32845;59.422;17.930;2022-09-01T14:39:26;14.90;99.90
44695;DHT22;32845;59.422;17.930;2022-09-01T14:43:57;14.90;99.90
44695;DHT22;32845;59.422;17.930;2022-09-01T14:48:32;15.00;99.90
44695;DHT22;32845;59.422;17.930;2022-09-01T14:53:03;15.00;99.90
44695;DHT22;32845;59.422;17.930;2022-09-01T14:57:34;15.00;99.90
44695;DHT22;32845;59.422;17.930;2022-09-01T15:02:05;14.90;99.90
44695;DHT22;32845;59.422;17.930;2022-09-01T15:06:35;14.90;99.90
44695;DHT22;32845;59.422;17.930;2022-09-01T15:11:11;14.90;99.90
44695;DHT22;32845;59.422;17.930;2022-09-01T15:15:42;14.90;99.90
44695;DHT22;32845;59.422;17.930;2022-09-01T15:20:13;14.90;99.90
44695;DHT22;32845;59.422;17.930;2022-09-01T15:25:03;14.90;99.90
44695;DHT22;32845;59.422;17.930;2022-09-01T15:29:34;14.90;99.90
44695;DHT22;32845;59.422;17.930;2022-09-01T15:34:15;15.00;99.90
44695;DHT22;32845;59.422;17.930;2022-09-01T15:38:47;15.00;99.90
44695;DHT22;32845;59.422;17.930;2022-09-01T15:43:18;15.00;99.90
44695;DHT22;32845;59.422;17.930;2022-09-01T15:47:50;15.00;99.90
44695;DHT22;32845;59.422;17.930;2022-09-01T15:52:20;15.10;99.90
44695;DHT22;32845;59.422;17.930;2022-09-01T15:56:51;15.00;99.90
44695;DHT22;32845;59.422;17.930;2022-09-01T16:01:22;15.00;99.90
44695;DHT22;32845;59.422;17.930;2022-09-01T16:05:52;15.00;99.90
44695;DHT22;32845;59.422;17.930;2022-09-01T16:10:23;15.00;99.90
44695;DHT22;32845;59.422;17.930;2022-09-01T16:14:54;14.90;99.90
44695;DHT22;32845;59.422;17.930;2022-09-01T16:19:33;14.80;99.90
44695;DHT22;32845;59.422;17.930;2022-09-01T16:24:09;14.80;99.90
44695;DHT22;32845;59.422;17.930;2022-09-01T16:28:46;14.70;99.90
44695;DHT22;32845;59.422;17.930;2022-09-01T16:33:17;14.50;99.90
44695;DHT22;32845;59.422;17.930;2022-09-01T16:42:48;14.40;99.90
44695;DHT22;32845;59.422;17.930;2022-09-01T16:52:14;14.30;99.90
44695;DHT22;32845;59.422;17.930;2022-09-01T17:01:47;14.30;99.90
44695;DHT22;32845;59.422;17.930;2022-09-01T17:07:19;14.20;99.90
44695;DHT22;32845;59.422;17.930;2022-09-01T17:11:52;14.20;99.90
44695;DHT22;32845;59.422;17.930;2022-09-01T17:16:32;14.10;99.90
44695;DHT22;32845;59.422;17.930;2022-09-01T17:21:32;14.10;99.90
44695;DHT22;32845;59.422;17.930;2022-09-01T17:26:14;13.90;99.90
44695;DHT22;32845;59.422;17.930;2022-09-01T17:31:21;13.80;99.90
44695;DHT22;32845;59.422;17.930;2022-09-01T17:55:26;13.20;99.90
44695;DHT22;32845;59.422;17.930;2022-09-01T18:00:07;13.10;99.90
44695;DHT22;32845;59.422;17.930;2022-09-01T18:09:22;12.80;99.90
44695;DHT22;32845;59.422;17.930;2022-09-01T18:14:17;12.60;99.90
44695;DHT22;32845;59.422;17.930;2022-09-01T18:18:51;12.50;99.90
44695;DHT22;32845;59.422;17.930;2022-09-01T18:23:23;12.20;99.90
44695;DHT22;32845;59.422;17.930;2022-09-01T18:27:54;12.00;99.90
44695;DHT22;32845;59.422;17.930;2022-09-01T18:47:13;11.40;99.90
44695;DHT22;32845;59.422;17.930;2022-09-01T18:51:47;11.20;99.90
44695;DHT22;32845;59.422;17.930;2022-09-01T19:01:13;11.00;99.90
44695;DHT22;32845;59.422;17.930;2022-09-01T19:06:04;10.90;99.90
44695;DHT22;32845;59.422;17.930;2022-09-01T19:25:14;10.50;99.90
44695;DHT22;32845;59.422;17.930;2022-09-01T19:30:06;10.40;99.90
44695;DHT22;32845;59.422;17.930;2022-09-01T19:34:42;10.40;99.90
44695;DHT22;32845;59.422;17.930;2022-09-01T19:39:18;10.30;99.90
44695;DHT22;32845;59.422;17.930;2022-09-01T19:43:54;10.20;99.90
44695;DHT22;32845;59.422;17.930;2022-09-01T19:53:13;10.10;99.90
44695;DHT22;32845;59.422;17.930;2022-09-01T19:57:58;10.00;99.90
44695;DHT22;32845;59.422;17.930;2022-09-01T20:02:40;10.00;99.90
44695;DHT22;32845;59.422;17.930;2022-09-01T20:07:41;9.90;99.90
44695;DHT22;32845;59.422;17.930;2022-09-01T20:12:30;9.90;99.90
44695;DHT22;32845;59.422;17.930;2022-09-01T20:17:05;9.90;99.90
44695;DHT22;32845;59.422;17.930;2022-09-01T20:21:41;9.90;99.90
44695;DHT22;32845;59.422;17.930;2022-09-01T20:26:38;9.90;99.90
44695;DHT22;32845;59.422;17.930;2022-09-01T20:31:14;9.80;99.90
44695;DHT22;32845;59.422;17.930;2022-09-01T20:36:13;9.80;99.90
44695;DHT22;32845;59.422;17.930;2022-09-01T20:40:44;9.90;99.90
44695;DHT22;32845;59.422;17.930;2022-09-01T20:45:20;9.90;99.90
44695;DHT22;32845;59.422;17.930;2022-09-01T20:49:52;10.00;99.90
44695;DHT22;32845;59.422;17.930;2022-09-01T20:59:07;10.00;99.90
44695;DHT22;32845;59.422;17.930;2022-09-01T21:23:13;9.50;99.90
44695;DHT22;32845;59.422;17.930;2022-09-01T21:27:53;9.50;99.90
44695;DHT22;32845;59.422;17.930;2022-09-01T21:32:26;9.50;99.90
44695;DHT22;32845;59.422;17.930;2022-09-01T21:36:58;9.60;99.90
44695;DHT22;32845;59.422;17.930;2022-09-01T21:41:29;9.60;99.90
44695;DHT22;32845;59.422;17.930;2022-09-01T21:46:00;9.60;99.90
44695;DHT22;32845;59.422;17.930;2022-09-01T21:50:31;9.70;99.90
44695;DHT22;32845;59.422;17.930;2022-09-01T21:55:03;9.70;99.90
44695;DHT22;32845;59.422;17.930;2022-09-01T21:59:34;9.70;99.90
44695;DHT22;32845;59.422;17.930;2022-09-01T22:04:05;9.70;99.90
44695;DHT22;32845;59.422;17.930;2022-09-01T22:08:36;9.70;99.90
44695;DHT22;32845;59.422;17.930;2022-09-01T22:13:06;9.70;99.90
44695;DHT22;32845;59.422;17.930;2022-09-01T22:17:39;9.60;99.90
44695;DHT22;32845;59.422;17.930;2022-09-01T22:22:11;9.60;99.90
44695;DHT22;32845;59.422;17.930;2022-09-01T22:26:41;9.60;99.90
44695;DHT22;32845;59.422;17.930;2022-09-01T22:31:18;9.50;99.90
44695;DHT22;32845;59.422;17.930;2022-09-01T22:35:52;9.60;99.90
44695;DHT22;32845;59.422;17.930;2022-09-01T22:40:23;9.60;99.90
44695;DHT22;32845;59.422;17.930;2022-09-01T22:44:54;9.60;99.90
44695;DHT22;32845;59.422;17.930;2022-09-01T22:49:25;9.70;99.90
44695;DHT22;32845;59.422;17.930;2022-09-01T22:53:55;9.80;99.90
44695;DHT22;32845;59.422;17.930;2022-09-01T22:58:26;9.80;99.90
44695;DHT22;32845;59.422;17.930;2022-09-01T23:02:57;9.80;99.90
44695;DHT22;32845;59.422;17.930;2022-09-01T23:07:28;9.90;99.90
44695;DHT22;32845;59.422;17.930;2022-09-01T23:11:59;9.90;99.90
44695;DHT22;32845;59.422;17.930;2022-09-01T23:16:30;10.00;99.90
44695;DHT22;32845;59.422;17.930;2022-09-01T23:21:03;10.00;99.90
44695;DHT22;32845;59.422;17.930;2022-09-01T23:25:33;10.10;99.90
44695;DHT22;32845;59.422;17.930;2022-09-01T23:30:06;10.10;99.90
44695;DHT22;32845;59.422;17.930;2022-09-01T23:34:37;10.10;99.90
44695;DHT22;32845;59.422;17.930;2022-09-01T23:39:08;10.10;99.90
44695;DHT22;32845;59.422;17.930;2022-09-01T23:43:39;10.10;99.90
44695;DHT22;32845;59.422;17.930;2022-09-01T23:48:11;10.20;99.90
44695;DHT22;32845;59.422;17.930;2022-09-01T23:52:42;10.20;99.90
44695;DHT22;32845;59.422;17.930;2022-09-01T23:57:18;10.20;99.90
